sensor_id;sensor_type;location;lat;lon;timestamp;P1;durP1;ratioP1;P2;durP2;ratioP2
3341;SDS011;1684;50.748;6.154;2024-01-15T00:01:04;45.40;;;17.13;;
3341;SDS011;1684;50.748;6.154;2024-01-15T00:03:32;44.00;;;17.97;;
3341;SDS011;1684;50.748;6.154;2024-01-15T00:06:00;44.40;;;15.90;;
3341;SDS011;1684;50.748;6.154;2024-01-15T00:08:29;39.13;;;14.30;;
3341;SDS011;1684;50.748;6.154;2024-01-15T00:10:58;30.77;;;12.50;;
3341;SDS011;1684;50.748;6.154;2024-01-15T00:13:27;39.80;;;17.13;;
3341;SDS011;1684;50.748;6.154;2024-01-15T00:15:55;38.83;;;16.10;;
3341;SDS011;1684;50.748;6.154;2024-01-15T00:18:23;38.53;;;16.60;;
3341;SDS011;1684;50.748;6.154;2024-01-15T00:20:52;30.97;;;14.27;;
3341;SDS011;1684;50.748;6.154;2024-01-15T00:23:20;33.27;;;14.63;;
3341;SDS011;1684;50.748;6.154;2024-01-15T00:25:50;37.83;;;14.30;;
3341;SDS011;1684;50.748;6.154;2024-01-15T00:28:20;33.17;;;14.80;;
3341;SDS011;1684;50.748;6.154;2024-01-15T00:30:48;36.83;;;16.50;;
3341;SDS011;1684;50.748;6.154;2024-01-15T00:33:16;47.77;;;17.43;;
3341;SDS011;1684;50.748;6.154;2024-01-15T00:35:45;37.83;;;17.17;;
3341;SDS011;1684;50.748;6.154;2024-01-15T00:38:13;35.90;;;15.90;;
3341;SDS011;1684;50.748;6.154;2024-01-15T00:40:41;35.63;;;15.50;;
3341;SDS011;1684;50.748;6.154;2024-01-15T00:43:09;45.43;;;17.70;;
3341;SDS011;1684;50.748;6.154;2024-01-15T00:45:39;47.70;;;17.60;;
3341;SDS011;1684;50.748;6.154;2024-01-15T00:48:07;36.27;;;15.80;;
3341;SDS011;1684;50.748;6.154;2024-01-15T00:50:36;39.43;;;18.50;;
3341;SDS011;1684;50.748;6.154;2024-01-15T00:53:04;35.67;;;15.90;;
3341;SDS011;1684;50.748;6.154;2024-01-15T00:55:32;49.40;;;16.73;;
3341;SDS011;1684;50.748;6.154;2024-01-15T00:58:00;40.80;;;17.80;;
3341;SDS011;1684;50.748;6.154;2024-01-15T01:00:28;37.03;;;16.00;;
3341;SDS011;1684;50.748;6.154;2024-01-15T01:02:58;37.50;;;15.80;;
3341;SDS011;1684;50.748;6.154;2024-01-15T01:05:27;42.03;;;15.90;;
3341;SDS011;1684;50.748;6.154;2024-01-15T01:07:55;38.13;;;15.90;;
3341;SDS011;1684;50.748;6.154;2024-01-15T01:10:23;36.40;;;14.80;;
3341;SDS011;1684;50.748;6.154;2024-01-15T01:12:51;40.87;;;16.70;;
3341;SDS011;1684;50.748;6.154;2024-01-15T01:15:20;34.27;;;16.40;;
3341;SDS011;1684;50.748;6.154;2024-01-15T01:17:48;44.53;;;16.03;;
3341;SDS011;1684;50.748;6.154;2024-01-15T01:20:18;28.97;;;13.93;;
3341;SDS011;1684;50.748;6.154;2024-01-15T01:22:46;29.30;;;13.33;;
3341;SDS011;1684;50.748;6.154;2024-01-15T01:25:15;42.63;;;19.97;;
3341;SDS011;1684;50.748;6.154;2024-01-15T01:27:43;43.80;;;17.50;;
3341;SDS011;1684;50.748;6.154;2024-01-15T01:30:11;34.20;;;13.23;;
3341;SDS011;1684;50.748;6.154;2024-01-15T01:32:40;36.87;;;15.40;;
3341;SDS011;1684;50.748;6.154;2024-01-15T01:35:08;35.87;;;15.53;;
3341;SDS011;1684;50.748;6.154;2024-01-15T01:37:38;39.57;;;15.00;;
3341;SDS011;1684;50.748;6.154;2024-01-15T01:40:06;25.70;;;14.73;;
3341;SDS011;1684;50.748;6.154;2024-01-15T01:42:35;41.60;;;15.67;;
3341;SDS011;1684;50.748;6.154;2024-01-15T01:45:03;40.10;;;15.60;;
3341;SDS011;1684;50.748;6.154;2024-01-15T01:47:32;29.50;;;12.80;;
3341;SDS011;1684;50.748;6.154;2024-01-15T01:50:01;38.07;;;17.60;;
3341;SDS011;1684;50.748;6.154;2024-01-15T01:52:29;36.37;;;17.50;;
3341;SDS011;1684;50.748;6.154;2024-01-15T01:54:59;41.03;;;17.87;;
3341;SDS011;1684;50.748;6.154;2024-01-15T01:57:28;38.00;;;16.33;;
3341;SDS011;1684;50.748;6.154;2024-01-15T01:59:57;40.40;;;17.90;;
3341;SDS011;1684;50.748;6.154;2024-01-15T02:02:26;40.23;;;16.87;;
3341;SDS011;1684;50.748;6.154;2024-01-15T02:04:54;33.97;;;13.97;;
3341;SDS011;1684;50.748;6.154;2024-01-15T02:07:22;35.37;;;15.77;;
3341;SDS011;1684;50.748;6.154;2024-01-15T02:09:50;35.93;;;16.33;;
3341;SDS011;1684;50.748;6.154;2024-01-15T02:12:20;38.40;;;15.80;;
3341;SDS011;1684;50.748;6.154;2024-01-15T02:14:48;38.20;;;19.53;;
3341;SDS011;1684;50.748;6.154;2024-01-15T02:17:16;29.73;;;17.03;;
3341;SDS011;1684;50.748;6.154;2024-01-15T02:19:45;32.60;;;16.57;;
3341;SDS011;1684;50.748;6.154;2024-01-15T02:22:13;42.20;;;17.50;;
3341;SDS011;1684;50.748;6.154;2024-01-15T02:24:43;42.13;;;19.23;;
3341;SDS011;1684;50.748;6.154;2024-01-15T02:27:11;41.17;;;18.87;;
3341;SDS011;1684;50.748;6.154;2024-01-15T02:29:39;37.80;;;21.97;;
3341;SDS011;1684;50.748;6.154;2024-01-15T02:32:08;45.93;;;21.30;;
3341;SDS011;1684;50.748;6.154;2024-01-15T02:34:36;40.93;;;19.23;;
3341;SDS011;1684;50.748;6.154;2024-01-15T02:37:05;40.40;;;21.50;;
3341;SDS011;1684;50.748;6.154;2024-01-15T02:39:33;42.33;;;19.03;;
3341;SDS011;1684;50.748;6.154;2024-01-15T02:42:03;49.27;;;20.23;;
3341;SDS011;1684;50.748;6.154;2024-01-15T02:44:31;40.90;;;17.93;;
3341;SDS011;1684;50.748;6.154;2024-01-15T02:46:59;45.70;;;19.53;;
3341;SDS011;1684;50.748;6.154;2024-01-15T02:49:28;34.80;;;15.13;;
3341;SDS011;1684;50.748;6.154;2024-01-15T02:51:57;36.53;;;18.60;;
3341;SDS011;1684;50.748;6.154;2024-01-15T02:54:25;39.97;;;19.10;;
3341;SDS011;1684;50.748;6.154;2024-01-15T02:56:54;44.30;;;19.97;;
3341;SDS011;1684;50.748;6.154;2024-01-15T02:59:23;47.53;;;19.73;;
3341;SDS011;1684;50.748;6.154;2024-01-15T03:01:51;40.83;;;18.10;;
3341;SDS011;1684;50.748;6.154;2024-01-15T03:04:20;46.37;;;18.70;;
3341;SDS011;1684;50.748;6.154;2024-01-15T03:06:48;47.40;;;18.87;;
3341;SDS011;1684;50.748;6.154;2024-01-15T03:09:16;42.57;;;17.90;;
3341;SDS011;1684;50.748;6.154;2024-01-15T03:11:45;43.90;;;18.90;;
3341;SDS011;1684;50.748;6.154;2024-01-15T03:14:13;35.37;;;17.83;;
3341;SDS011;1684;50.748;6.154;2024-01-15T03:16:42;32.53;;;15.90;;
3341;SDS011;1684;50.748;6.154;2024-01-15T03:19:11;39.27;;;18.67;;
3341;SDS011;1684;50.748;6.154;2024-01-15T03:21:39;33.93;;;16.20;;
3341;SDS011;1684;50.748;6.154;2024-01-15T03:24:08;35.50;;;15.83;;
3341;SDS011;1684;50.748;6.154;2024-01-15T03:26:36;30.53;;;16.87;;
3341;SDS011;1684;50.748;6.154;2024-01-15T03:29:04;38.80;;;15.53;;
3341;SDS011;1684;50.748;6.154;2024-01-15T03:31:33;31.83;;;14.27;;
3341;SDS011;1684;50.748;6.154;2024-01-15T03:34:03;29.93;;;17.00;;
3341;SDS011;1684;50.748;6.154;2024-01-15T03:36:31;41.50;;;17.67;;
3341;SDS011;1684;50.748;6.154;2024-01-15T03:38:59;32.17;;;16.30;;
3341;SDS011;1684;50.748;6.154;2024-01-15T03:41:28;36.00;;;15.50;;
3341;SDS011;1684;50.748;6.154;2024-01-15T03:43:56;36.77;;;18.50;;
3341;SDS011;1684;50.748;6.154;2024-01-15T03:46:25;33.50;;;16.40;;
3341;SDS011;1684;50.748;6.154;2024-01-15T03:48:53;41.97;;;18.10;;
3341;SDS011;1684;50.748;6.154;2024-01-15T03:51:23;36.93;;;16.17;;
3341;SDS011;1684;50.748;6.154;2024-01-15T03:53:51;32.73;;;15.37;;
3341;SDS011;1684;50.748;6.154;2024-01-15T03:56:19;31.27;;;15.60;;
3341;SDS011;1684;50.748;6.154;2024-01-15T03:58:47;29.13;;;15.73;;
3341;SDS011;1684;50.748;6.154;2024-01-15T04:01:16;36.17;;;14.97;;
3341;SDS011;1684;50.748;6.154;2024-01-15T04:03:44;36.70;;;14.73;;
3341;SDS011;1684;50.748;6.154;2024-01-15T04:06:12;37.73;;;17.13;;
3341;SDS011;1684;50.748;6.154;2024-01-15T04:08:42;39.23;;;18.10;;
3341;SDS011;1684;50.748;6.154;2024-01-15T04:11:10;34.60;;;17.73;;
3341;SDS011;1684;50.748;6.154;2024-01-15T04:13:38;48.33;;;20.03;;
3341;SDS011;1684;50.748;6.154;2024-01-15T04:16:08;36.30;;;17.03;;
3341;SDS011;1684;50.748;6.154;2024-01-15T04:18:36;39.57;;;20.57;;
3341;SDS011;1684;50.748;6.154;2024-01-15T04:21:04;38.93;;;19.00;;
3341;SDS011;1684;50.748;6.154;2024-01-15T04:23:33;35.60;;;18.50;;
3341;SDS011;1684;50.748;6.154;2024-01-15T04:26:02;35.83;;;16.73;;
3341;SDS011;1684;50.748;6.154;2024-01-15T04:28:31;30.50;;;16.47;;
3341;SDS011;1684;50.748;6.154;2024-01-15T04:30:59;36.83;;;19.17;;
3341;SDS011;1684;50.748;6.154;2024-01-15T04:33:27;39.53;;;16.10;;
3341;SDS011;1684;50.748;6.154;2024-01-15T04:35:56;34.07;;;15.77;;
3341;SDS011;1684;50.748;6.154;2024-01-15T04:38:24;37.13;;;18.17;;
3341;SDS011;1684;50.748;6.154;2024-01-15T04:40:52;26.17;;;15.90;;
3341;SDS011;1684;50.748;6.154;2024-01-15T04:43:25;32.40;;;17.70;;
3341;SDS011;1684;50.748;6.154;2024-01-15T04:45:53;42.67;;;16.67;;
3341;SDS011;1684;50.748;6.154;2024-01-15T04:48:21;37.80;;;18.40;;
3341;SDS011;1684;50.748;6.154;2024-01-15T04:50:50;40.17;;;17.40;;
3341;SDS011;1684;50.748;6.154;2024-01-15T04:53:18;37.60;;;14.97;;
3341;SDS011;1684;50.748;6.154;2024-01-15T04:55:46;51.30;;;19.57;;
3341;SDS011;1684;50.748;6.154;2024-01-15T04:58:14;34.00;;;20.30;;
3341;SDS011;1684;50.748;6.154;2024-01-15T05:00:44;40.13;;;22.03;;
3341;SDS011;1684;50.748;6.154;2024-01-15T05:03:12;41.57;;;18.67;;
3341;SDS011;1684;50.748;6.154;2024-01-15T05:05:40;38.90;;;20.53;;
3341;SDS011;1684;50.748;6.154;2024-01-15T05:08:09;36.37;;;18.10;;
3341;SDS011;1684;50.748;6.154;2024-01-15T05:10:37;39.87;;;18.63;;
3341;SDS011;1684;50.748;6.154;2024-01-15T05:13:05;32.83;;;17.13;;
3341;SDS011;1684;50.748;6.154;2024-01-15T05:15:34;39.03;;;20.57;;
3341;SDS011;1684;50.748;6.154;2024-01-15T05:18:03;43.97;;;19.20;;
3341;SDS011;1684;50.748;6.154;2024-01-15T05:20:32;36.20;;;18.67;;
3341;SDS011;1684;50.748;6.154;2024-01-15T05:23:01;34.93;;;17.83;;
3341;SDS011;1684;50.748;6.154;2024-01-15T05:25:29;31.97;;;16.60;;
3341;SDS011;1684;50.748;6.154;2024-01-15T05:27:57;34.27;;;16.50;;
3341;SDS011;1684;50.748;6.154;2024-01-15T05:30:26;32.13;;;15.57;;
3341;SDS011;1684;50.748;6.154;2024-01-15T05:32:54;28.67;;;14.80;;
3341;SDS011;1684;50.748;6.154;2024-01-15T05:35:25;29.80;;;16.40;;
3341;SDS011;1684;50.748;6.154;2024-01-15T05:37:53;34.60;;;15.83;;
3341;SDS011;1684;50.748;6.154;2024-01-15T05:40:21;37.13;;;17.60;;
3341;SDS011;1684;50.748;6.154;2024-01-15T05:42:49;37.50;;;20.53;;
3341;SDS011;1684;50.748;6.154;2024-01-15T05:45:18;31.50;;;15.87;;
3341;SDS011;1684;50.748;6.154;2024-01-15T05:47:46;38.37;;;16.60;;
3341;SDS011;1684;50.748;6.154;2024-01-15T05:50:14;35.40;;;16.57;;
3341;SDS011;1684;50.748;6.154;2024-01-15T05:52:44;30.93;;;17.00;;
3341;SDS011;1684;50.748;6.154;2024-01-15T05:55:12;34.73;;;18.70;;
3341;SDS011;1684;50.748;6.154;2024-01-15T05:57:40;29.93;;;16.40;;
3341;SDS011;1684;50.748;6.154;2024-01-15T06:00:09;29.40;;;16.23;;
3341;SDS011;1684;50.748;6.154;2024-01-15T06:02:38;29.80;;;16.00;;
3341;SDS011;1684;50.748;6.154;2024-01-15T06:05:06;33.83;;;16.93;;
3341;SDS011;1684;50.748;6.154;2024-01-15T06:07:34;31.70;;;17.40;;
3341;SDS011;1684;50.748;6.154;2024-01-15T06:10:04;33.77;;;16.60;;
3341;SDS011;1684;50.748;6.154;2024-01-15T06:12:32;37.47;;;16.70;;
3341;SDS011;1684;50.748;6.154;2024-01-15T06:15:01;25.13;;;15.10;;
3341;SDS011;1684;50.748;6.154;2024-01-15T06:17:29;34.13;;;20.63;;
3341;SDS011;1684;50.748;6.154;2024-01-15T06:19:57;42.37;;;17.07;;
3341;SDS011;1684;50.748;6.154;2024-01-15T06:22:26;35.20;;;16.97;;
3341;SDS011;1684;50.748;6.154;2024-01-15T06:24:54;38.00;;;18.40;;
3341;SDS011;1684;50.748;6.154;2024-01-15T06:27:24;30.47;;;15.07;;
3341;SDS011;1684;50.748;6.154;2024-01-15T06:29:52;35.00;;;16.33;;
3341;SDS011;1684;50.748;6.154;2024-01-15T06:32:22;28.77;;;15.70;;
3341;SDS011;1684;50.748;6.154;2024-01-15T06:34:51;36.10;;;16.60;;
3341;SDS011;1684;50.748;6.154;2024-01-15T06:37:19;38.47;;;18.15;;
3341;SDS011;1684;50.748;6.154;2024-01-15T06:39:47;34.57;;;17.40;;
3341;SDS011;1684;50.748;6.154;2024-01-15T06:42:16;33.87;;;19.00;;
3341;SDS011;1684;50.748;6.154;2024-01-15T06:44:48;32.43;;;17.60;;
3341;SDS011;1684;50.748;6.154;2024-01-15T06:47:16;38.60;;;18.63;;
3341;SDS011;1684;50.748;6.154;2024-01-15T06:49:45;37.33;;;17.40;;
3341;SDS011;1684;50.748;6.154;2024-01-15T06:52:13;35.47;;;18.03;;
3341;SDS011;1684;50.748;6.154;2024-01-15T06:54:41;44.70;;;21.50;;
3341;SDS011;1684;50.748;6.154;2024-01-15T06:57:09;38.20;;;20.13;;
3341;SDS011;1684;50.748;6.154;2024-01-15T06:59:38;41.87;;;19.00;;
3341;SDS011;1684;50.748;6.154;2024-01-15T07:02:08;37.37;;;20.80;;
3341;SDS011;1684;50.748;6.154;2024-01-15T07:04:37;48.53;;;24.07;;
3341;SDS011;1684;50.748;6.154;2024-01-15T07:07:08;51.63;;;22.30;;
3341;SDS011;1684;50.748;6.154;2024-01-15T07:09:37;46.57;;;21.50;;
3341;SDS011;1684;50.748;6.154;2024-01-15T07:12:05;46.53;;;19.10;;
3341;SDS011;1684;50.748;6.154;2024-01-15T07:14:33;47.67;;;22.03;;
3341;SDS011;1684;50.748;6.154;2024-01-15T07:17:02;47.93;;;26.07;;
3341;SDS011;1684;50.748;6.154;2024-01-15T07:19:31;36.67;;;16.70;;
3341;SDS011;1684;50.748;6.154;2024-01-15T07:22:00;35.40;;;15.33;;
3341;SDS011;1684;50.748;6.154;2024-01-15T07:24:28;36.53;;;17.00;;
3341;SDS011;1684;50.748;6.154;2024-01-15T07:26:56;44.50;;;21.13;;
3341;SDS011;1684;50.748;6.154;2024-01-15T07:29:25;44.87;;;23.53;;
3341;SDS011;1684;50.748;6.154;2024-01-15T07:31:53;45.43;;;22.57;;
3341;SDS011;1684;50.748;6.154;2024-01-15T07:34:21;40.90;;;21.50;;
3341;SDS011;1684;50.748;6.154;2024-01-15T07:36:51;40.57;;;14.90;;
3341;SDS011;1684;50.748;6.154;2024-01-15T07:39:20;43.07;;;23.83;;
3341;SDS011;1684;50.748;6.154;2024-01-15T07:41:49;43.17;;;20.27;;
3341;SDS011;1684;50.748;6.154;2024-01-15T07:44:17;39.93;;;19.17;;
3341;SDS011;1684;50.748;6.154;2024-01-15T07:46:45;33.03;;;17.53;;
3341;SDS011;1684;50.748;6.154;2024-01-15T07:49:13;31.43;;;16.13;;
3341;SDS011;1684;50.748;6.154;2024-01-15T07:51:43;33.30;;;16.73;;
3341;SDS011;1684;50.748;6.154;2024-01-15T07:54:12;35.60;;;18.20;;
3341;SDS011;1684;50.748;6.154;2024-01-15T07:56:53;32.33;;;16.97;;
3341;SDS011;1684;50.748;6.154;2024-01-15T07:59:22;25.77;;;13.20;;
3341;SDS011;1684;50.748;6.154;2024-01-15T08:01:50;35.67;;;17.63;;
3341;SDS011;1684;50.748;6.154;2024-01-15T08:04:18;35.33;;;17.30;;
3341;SDS011;1684;50.748;6.154;2024-01-15T08:06:48;29.07;;;14.50;;
3341;SDS011;1684;50.748;6.154;2024-01-15T08:09:18;25.00;;;12.90;;
3341;SDS011;1684;50.748;6.154;2024-01-15T08:11:46;24.20;;;12.60;;
3341;SDS011;1684;50.748;6.154;2024-01-15T08:14:15;34.40;;;14.07;;
3341;SDS011;1684;50.748;6.154;2024-01-15T08:16:43;26.20;;;12.03;;
3341;SDS011;1684;50.748;6.154;2024-01-15T08:19:12;26.53;;;9.73;;
3341;SDS011;1684;50.748;6.154;2024-01-15T08:21:40;26.83;;;13.63;;
3341;SDS011;1684;50.748;6.154;2024-01-15T08:24:09;19.20;;;10.60;;
3341;SDS011;1684;50.748;6.154;2024-01-15T08:26:38;24.40;;;12.40;;
3341;SDS011;1684;50.748;6.154;2024-01-15T08:29:07;19.20;;;11.20;;
3341;SDS011;1684;50.748;6.154;2024-01-15T08:31:35;23.60;;;9.87;;
3341;SDS011;1684;50.748;6.154;2024-01-15T08:34:03;27.07;;;11.57;;
3341;SDS011;1684;50.748;6.154;2024-01-15T08:36:32;24.47;;;12.87;;
3341;SDS011;1684;50.748;6.154;2024-01-15T08:39:02;25.77;;;13.10;;
3341;SDS011;1684;50.748;6.154;2024-01-15T08:41:31;21.23;;;12.43;;
3341;SDS011;1684;50.748;6.154;2024-01-15T08:44:00;25.23;;;13.90;;
3341;SDS011;1684;50.748;6.154;2024-01-15T08:46:29;17.97;;;10.67;;
3341;SDS011;1684;50.748;6.154;2024-01-15T08:48:57;18.73;;;10.47;;
3341;SDS011;1684;50.748;6.154;2024-01-15T08:51:26;18.47;;;9.00;;
3341;SDS011;1684;50.748;6.154;2024-01-15T08:53:54;22.30;;;10.60;;
3341;SDS011;1684;50.748;6.154;2024-01-15T08:56:23;23.60;;;11.20;;
3341;SDS011;1684;50.748;6.154;2024-01-15T08:58:53;24.23;;;11.47;;
3341;SDS011;1684;50.748;6.154;2024-01-15T09:01:23;17.83;;;10.43;;
3341;SDS011;1684;50.748;6.154;2024-01-15T09:03:51;19.90;;;11.33;;
3341;SDS011;1684;50.748;6.154;2024-01-15T09:06:20;19.43;;;10.47;;
3341;SDS011;1684;50.748;6.154;2024-01-15T09:08:48;26.60;;;10.43;;
3341;SDS011;1684;50.748;6.154;2024-01-15T09:11:16;21.67;;;9.93;;
3341;SDS011;1684;50.748;6.154;2024-01-15T09:13:45;19.70;;;9.67;;
3341;SDS011;1684;50.748;6.154;2024-01-15T09:16:13;26.83;;;10.80;;
3341;SDS011;1684;50.748;6.154;2024-01-15T09:18:43;11.50;;;5.37;;
3341;SDS011;1684;50.748;6.154;2024-01-15T09:21:13;18.20;;;9.90;;
3341;SDS011;1684;50.748;6.154;2024-01-15T09:23:41;17.07;;;10.00;;
3341;SDS011;1684;50.748;6.154;2024-01-15T09:26:10;12.77;;;7.27;;
3341;SDS011;1684;50.748;6.154;2024-01-15T09:28:38;24.63;;;10.87;;
3341;SDS011;1684;50.748;6.154;2024-01-15T09:31:07;15.40;;;8.70;;
3341;SDS011;1684;50.748;6.154;2024-01-15T09:33:35;20.03;;;9.27;;
3341;SDS011;1684;50.748;6.154;2024-01-15T09:36:05;15.30;;;7.40;;
3341;SDS011;1684;50.748;6.154;2024-01-15T09:38:33;21.23;;;9.03;;
3341;SDS011;1684;50.748;6.154;2024-01-15T09:41:02;19.20;;;8.33;;
3341;SDS011;1684;50.748;6.154;2024-01-15T09:43:32;22.43;;;10.20;;
3341;SDS011;1684;50.748;6.154;2024-01-15T09:46:00;16.80;;;8.57;;
3341;SDS011;1684;50.748;6.154;2024-01-15T09:48:30;14.67;;;7.33;;
3341;SDS011;1684;50.748;6.154;2024-01-15T09:51:01;14.80;;;7.20;;
3341;SDS011;1684;50.748;6.154;2024-01-15T09:53:31;13.37;;;7.80;;
3341;SDS011;1684;50.748;6.154;2024-01-15T09:56:00;17.37;;;8.63;;
3341;SDS011;1684;50.748;6.154;2024-01-15T09:58:29;15.90;;;10.13;;
3341;SDS011;1684;50.748;6.154;2024-01-15T10:00:57;15.67;;;8.67;;
3341;SDS011;1684;50.748;6.154;2024-01-15T10:03:30;15.27;;;9.43;;
3341;SDS011;1684;50.748;6.154;2024-01-15T10:05:59;15.27;;;12.00;;
3341;SDS011;1684;50.748;6.154;2024-01-15T10:08:28;16.63;;;10.20;;
3341;SDS011;1684;50.748;6.154;2024-01-15T10:10:57;14.80;;;9.13;;
3341;SDS011;1684;50.748;6.154;2024-01-15T10:13:26;12.43;;;8.80;;
3341;SDS011;1684;50.748;6.154;2024-01-15T10:15:54;19.40;;;9.60;;
3341;SDS011;1684;50.748;6.154;2024-01-15T10:18:23;16.30;;;8.70;;
3341;SDS011;1684;50.748;6.154;2024-01-15T10:20:51;19.67;;;8.97;;
3341;SDS011;1684;50.748;6.154;2024-01-15T10:23:20;18.43;;;8.50;;
3341;SDS011;1684;50.748;6.154;2024-01-15T10:25:49;17.60;;;9.73;;
3341;SDS011;1684;50.748;6.154;2024-01-15T10:28:19;24.50;;;9.57;;
3341;SDS011;1684;50.748;6.154;2024-01-15T10:30:51;17.93;;;9.83;;
3341;SDS011;1684;50.748;6.154;2024-01-15T10:33:21;15.17;;;9.80;;
3341;SDS011;1684;50.748;6.154;2024-01-15T10:35:52;15.67;;;9.67;;
3341;SDS011;1684;50.748;6.154;2024-01-15T10:38:21;19.87;;;9.77;;
3341;SDS011;1684;50.748;6.154;2024-01-15T10:40:50;15.37;;;8.40;;
3341;SDS011;1684;50.748;6.154;2024-01-15T10:43:21;14.37;;;7.40;;
3341;SDS011;1684;50.748;6.154;2024-01-15T10:45:54;16.87;;;9.30;;
3341;SDS011;1684;50.748;6.154;2024-01-15T10:48:22;18.40;;;10.27;;
3341;SDS011;1684;50.748;6.154;2024-01-15T10:50:53;11.47;;;8.07;;
3341;SDS011;1684;50.748;6.154;2024-01-15T10:53:21;12.10;;;7.23;;
3341;SDS011;1684;50.748;6.154;2024-01-15T10:55:49;15.30;;;6.93;;
3341;SDS011;1684;50.748;6.154;2024-01-15T10:58:18;11.70;;;6.77;;
3341;SDS011;1684;50.748;6.154;2024-01-15T11:00:50;13.57;;;7.53;;
3341;SDS011;1684;50.748;6.154;2024-01-15T11:03:19;13.43;;;7.20;;
3341;SDS011;1684;50.748;6.154;2024-01-15T11:05:47;12.13;;;7.37;;
3341;SDS011;1684;50.748;6.154;2024-01-15T11:08:17;10.80;;;5.90;;
3341;SDS011;1684;50.748;6.154;2024-01-15T11:10:46;15.03;;;7.73;;
3341;SDS011;1684;50.748;6.154;2024-01-15T11:13:18;16.00;;;7.83;;
3341;SDS011;1684;50.748;6.154;2024-01-15T11:15:58;23.33;;;5.97;;
3341;SDS011;1684;50.748;6.154;2024-01-15T11:18:27;11.03;;;5.80;;
3341;SDS011;1684;50.748;6.154;2024-01-15T11:23:58;18.90;;;6.70;;
3341;SDS011;1684;50.748;6.154;2024-01-15T11:26:26;13.33;;;6.53;;
3341;SDS011;1684;50.748;6.154;2024-01-15T11:28:55;8.80;;;5.43;;
3341;SDS011;1684;50.748;6.154;2024-01-15T11:31:27;15.13;;;6.87;;
3341;SDS011;1684;50.748;6.154;2024-01-15T11:33:55;12.10;;;6.60;;
3341;SDS011;1684;50.748;6.154;2024-01-15T11:41:50;14.90;;;6.30;;
3341;SDS011;1684;50.748;6.154;2024-01-15T11:44:18;16.40;;;6.30;;
3341;SDS011;1684;50.748;6.154;2024-01-15T11:46:53;10.20;;;5.80;;
3341;SDS011;1684;50.748;6.154;2024-01-15T11:49:26;16.33;;;6.90;;
3341;SDS011;1684;50.748;6.154;2024-01-15T11:52:00;11.93;;;5.47;;
3341;SDS011;1684;50.748;6.154;2024-01-15T11:54:29;11.37;;;5.77;;
3341;SDS011;1684;50.748;6.154;2024-01-15T11:57:00;15.17;;;7.37;;
3341;SDS011;1684;50.748;6.154;2024-01-15T11:59:30;12.07;;;5.10;;
3341;SDS011;1684;50.748;6.154;2024-01-15T12:01:59;11.53;;;5.40;;
3341;SDS011;1684;50.748;6.154;2024-01-15T12:04:29;11.73;;;5.23;;
3341;SDS011;1684;50.748;6.154;2024-01-15T12:06:57;10.27;;;5.43;;
3341;SDS011;1684;50.748;6.154;2024-01-15T12:09:26;22.90;;;9.60;;
3341;SDS011;1684;50.748;6.154;2024-01-15T12:11:57;12.70;;;5.90;;
3341;SDS011;1684;50.748;6.154;2024-01-15T12:14:31;8.23;;;5.23;;
3341;SDS011;1684;50.748;6.154;2024-01-15T12:17:02;10.80;;;6.30;;
3341;SDS011;1684;50.748;6.154;2024-01-15T12:19:31;11.53;;;5.37;;
3341;SDS011;1684;50.748;6.154;2024-01-15T12:21:59;9.83;;;5.00;;
3341;SDS011;1684;50.748;6.154;2024-01-15T12:24:29;15.40;;;4.60;;
3341;SDS011;1684;50.748;6.154;2024-01-15T12:26:57;7.63;;;4.90;;
3341;SDS011;1684;50.748;6.154;2024-01-15T12:29:26;12.07;;;5.13;;
3341;SDS011;1684;50.748;6.154;2024-01-15T12:31:54;10.80;;;4.90;;
3341;SDS011;1684;50.748;6.154;2024-01-15T12:34:24;12.27;;;4.90;;
3341;SDS011;1684;50.748;6.154;2024-01-15T12:36:57;8.53;;;4.10;;
3341;SDS011;1684;50.748;6.154;2024-01-15T12:39:25;12.23;;;5.03;;
3341;SDS011;1684;50.748;6.154;2024-01-15T12:41:53;11.87;;;4.27;;
3341;SDS011;1684;50.748;6.154;2024-01-15T12:44:22;11.97;;;4.97;;
3341;SDS011;1684;50.748;6.154;2024-01-15T12:46:50;11.03;;;4.47;;
3341;SDS011;1684;50.748;6.154;2024-01-15T12:49:19;12.60;;;4.50;;
3341;SDS011;1684;50.748;6.154;2024-01-15T12:51:53;11.50;;;5.43;;
3341;SDS011;1684;50.748;6.154;2024-01-15T12:54:22;10.33;;;4.03;;
3341;SDS011;1684;50.748;6.154;2024-01-15T12:56:51;10.10;;;4.77;;
3341;SDS011;1684;50.748;6.154;2024-01-15T12:59:19;10.00;;;4.40;;
3341;SDS011;1684;50.748;6.154;2024-01-15T13:01:47;12.80;;;4.37;;
3341;SDS011;1684;50.748;6.154;2024-01-15T13:04:20;9.50;;;4.10;;
3341;SDS011;1684;50.748;6.154;2024-01-15T13:06:53;10.30;;;3.80;;
3341;SDS011;1684;50.748;6.154;2024-01-15T13:09:21;9.00;;;4.27;;
3341;SDS011;1684;50.748;6.154;2024-01-15T13:11:49;11.97;;;4.47;;
3341;SDS011;1684;50.748;6.154;2024-01-15T13:14:18;4.40;;;2.53;;
3341;SDS011;1684;50.748;6.154;2024-01-15T13:16:47;3.50;;;2.00;;
3341;SDS011;1684;50.748;6.154;2024-01-15T13:19:16;6.60;;;3.67;;
3341;SDS011;1684;50.748;6.154;2024-01-15T13:21:45;11.67;;;3.77;;
3341;SDS011;1684;50.748;6.154;2024-01-15T13:24:15;7.07;;;3.20;;
3341;SDS011;1684;50.748;6.154;2024-01-15T13:26:43;8.47;;;2.53;;
3341;SDS011;1684;50.748;6.154;2024-01-15T13:29:11;4.30;;;2.60;;
3341;SDS011;1684;50.748;6.154;2024-01-15T13:31:39;3.20;;;1.73;;
3341;SDS011;1684;50.748;6.154;2024-01-15T13:34:09;4.97;;;2.30;;
3341;SDS011;1684;50.748;6.154;2024-01-15T13:36:37;6.30;;;3.00;;
3341;SDS011;1684;50.748;6.154;2024-01-15T13:39:06;4.20;;;2.07;;
3341;SDS011;1684;50.748;6.154;2024-01-15T13:41:36;7.87;;;3.10;;
3341;SDS011;1684;50.748;6.154;2024-01-15T13:44:04;4.03;;;2.10;;
3341;SDS011;1684;50.748;6.154;2024-01-15T13:46:33;4.73;;;2.80;;
3341;SDS011;1684;50.748;6.154;2024-01-15T13:49:02;5.43;;;3.10;;
3341;SDS011;1684;50.748;6.154;2024-01-15T13:51:32;5.73;;;2.40;;
3341;SDS011;1684;50.748;6.154;2024-01-15T13:54:01;8.90;;;3.20;;
3341;SDS011;1684;50.748;6.154;2024-01-15T13:56:30;5.30;;;3.63;;
3341;SDS011;1684;50.748;6.154;2024-01-15T13:59:00;9.10;;;4.80;;
3341;SDS011;1684;50.748;6.154;2024-01-15T14:01:30;5.30;;;3.43;;
3341;SDS011;1684;50.748;6.154;2024-01-15T14:04:00;8.23;;;4.90;;
3341;SDS011;1684;50.748;6.154;2024-01-15T14:06:28;10.13;;;4.10;;
3341;SDS011;1684;50.748;6.154;2024-01-15T14:08:56;8.73;;;3.67;;
3341;SDS011;1684;50.748;6.154;2024-01-15T14:11:25;6.90;;;4.30;;
3341;SDS011;1684;50.748;6.154;2024-01-15T14:13:53;4.97;;;2.83;;
3341;SDS011;1684;50.748;6.154;2024-01-15T14:16:22;3.80;;;2.63;;
3341;SDS011;1684;50.748;6.154;2024-01-15T14:18:51;7.43;;;3.33;;
3341;SDS011;1684;50.748;6.154;2024-01-15T14:21:20;6.90;;;3.40;;
3341;SDS011;1684;50.748;6.154;2024-01-15T14:23:48;5.10;;;1.83;;
3341;SDS011;1684;50.748;6.154;2024-01-15T14:26:16;4.50;;;2.30;;
3341;SDS011;1684;50.748;6.154;2024-01-15T14:28:44;5.00;;;3.00;;
3341;SDS011;1684;50.748;6.154;2024-01-15T14:31:17;5.33;;;3.23;;
3341;SDS011;1684;50.748;6.154;2024-01-15T14:33:48;5.30;;;2.20;;
3341;SDS011;1684;50.748;6.154;2024-01-15T14:36:16;4.17;;;2.17;;
3341;SDS011;1684;50.748;6.154;2024-01-15T14:38:44;9.10;;;2.50;;
3341;SDS011;1684;50.748;6.154;2024-01-15T14:41:12;6.23;;;2.97;;
3341;SDS011;1684;50.748;6.154;2024-01-15T14:43:42;4.27;;;2.43;;
3341;SDS011;1684;50.748;6.154;2024-01-15T14:46:11;4.93;;;2.13;;
3341;SDS011;1684;50.748;6.154;2024-01-15T14:48:40;3.20;;;1.60;;
3341;SDS011;1684;50.748;6.154;2024-01-15T14:51:09;5.50;;;2.23;;
3341;SDS011;1684;50.748;6.154;2024-01-15T14:53:38;6.73;;;2.47;;
3341;SDS011;1684;50.748;6.154;2024-01-15T14:56:06;5.07;;;1.97;;
3341;SDS011;1684;50.748;6.154;2024-01-15T14:58:34;3.90;;;2.20;;
3341;SDS011;1684;50.748;6.154;2024-01-15T15:01:03;7.03;;;2.37;;
3341;SDS011;1684;50.748;6.154;2024-01-15T15:03:31;3.93;;;2.27;;
3341;SDS011;1684;50.748;6.154;2024-01-15T15:06:00;7.23;;;3.20;;
3341;SDS011;1684;50.748;6.154;2024-01-15T15:08:30;2.73;;;1.37;;
3341;SDS011;1684;50.748;6.154;2024-01-15T15:10:58;5.20;;;2.67;;
3341;SDS011;1684;50.748;6.154;2024-01-15T15:13:26;7.13;;;3.13;;